MST,Max TemperatureF,Mean TemperatureF,Min TemperatureF,Max Dew PointF,MeanDew PointF,Min DewpointF,Max Humidity, Mean Humidity, Min Humidity, Max Sea Level PressureIn, Mean Sea Level PressureIn, Min Sea Level PressureIn, Max VisibilityMiles, Mean VisibilityMiles, Min VisibilityMiles, Max Wind SpeedMPH, Mean Wind SpeedMPH, Max Gust SpeedMPH,PrecipitationIn, CloudCover, Events, WindDirDegrees
2013-5-1,86,78,71,28,12,0,19,9,4,30.17,29.94,29.66,10,10,7,37,21,50,0.00,0,,356
2013-5-2,86,74,62,16,11,7,13,9,6,30.32,30.17,30.04,10,10,10,38,29,48,0.00,0,Thunderstorm,355
2013-5-3,93,81,69,14,7,0,11,7,4,30.06,29.92,29.75,10,10,8,22,13,28,0.00,0,,1
2013-5-4,95,78,60,18,12,5,14,8,4,29.75,29.65,29.52,10,10,10,28,7,34,0.00,0,Thunderstorm,163
2013-5-5,84,76,69,32,25,19,25,15,9,29.82,29.73,29.63,10,10,9,24,12,38,0.00,0,Thunderstorm,168
2013-5-6,80,72,64,45,38,28,46,28,18,29.92,29.84,29.77,10,10,10,23,12,33,0.00,1,Thunderstorm,177
2013-5-7,77,68,60,45,36,30,45,29,19,29.95,29.89,29.83,10,10,10,20,11,34,0.00,1,Rain-Thunderstorm,169
2013-5-8,82,70,57,39,34,30,44,26,15,30.03,29.95,29.89,10,10,10,12,5,16,0.00,0,,193
2013-5-9,86,74,62,39,35,32,32,22,14,29.98,29.93,29.87,10,10,10,22,4,30,0.00,0,,344
2013-5-10,95,84,73,45,40,32,36,23,11,30.01,29.96,29.88,10,10,10,29,14,37,0.00,0,Rain-Thunderstorm,359
2013-5-11,100,88,75,39,32,25,26,15,7,30.07,30.00,29.92,10,10,10,18,11,23,0.00,0,Thunderstorm,26
2013-5-12,102,86,69,32,28,25,22,12,6,30.09,29.98,29.86,10,10,10,10,3,,0.00,0,,193
2013-5-13,105,89,73,32,28,25,19,12,6,29.99,29.89,29.78,10,10,10,10,4,16,0.00,0,,168
2013-5-14,107,91,75,32,27,16,18,10,6,29.86,29.77,29.66,10,10,10,22,7,30,0.00,0,Thunderstorm,146
2013-5-15,98,86,73,34,29,23,21,12,7,29.88,29.78,29.68,10,10,10,25,10,30,0.00,0,,113
2013-5-16,98,84,71,41,31,25,24,14,8,29.80,29.71,29.61,10,10,10,24,9,31,0.00,0,,65
2013-5-17,89,82,75,39,36,32,24,19,13,29.82,29.75,29.69,10,10,10,23,14,31,0.00,0,,185
2013-5-18,93,80,68,39,35,28,30,19,11,29.89,29.81,29.75,10,10,10,20,5,23,0.00,0,,179
2013-5-19,95,82,69,32,25,10,20,12,4,29.89,29.80,29.72,10,10,10,22,8,28,0.00,0,,350
2013-5-20,89,81,73,37,30,23,27,17,10,30.00,29.91,29.85,10,10,10,26,19,38,0.00,0,,353
2013-5-21,98,83,68,39,26,14,31,14,5,29.89,29.78,29.62,10,10,9,20,6,24,0.00,0,Thunderstorm,190
2013-5-22,100,86,73,34,27,16,22,12,5,29.69,29.59,29.49,10,10,10,29,11,36,0.00,0,Thunderstorm,175
2013-5-23,93,81,69,34,23,9,25,13,5,29.75,29.69,29.60,10,10,10,24,10,34,0.00,0,,165
2013-5-24,93,80,66,28,23,16,18,12,8,29.87,29.79,29.72,10,10,10,22,7,30,0.00,0,,181
2013-5-25,95,80,66,28,18,5,18,10,4,29.87,29.80,29.74,10,10,10,24,9,34,0.00,0,,169
2013-5-26,95,82,68,32,22,16,19,11,6,29.88,29.81,29.73,10,10,10,23,8,38,0.00,0,,173
2013-5-27,95,83,71,34,30,25,23,14,9,29.83,29.75,29.64,10,10,10,20,8,24,0.00,0,,162
2013-5-28,95,85,75,37,34,23,21,16,9,29.66,29.60,29.51,10,10,10,16,9,24,0.00,0,,150
2013-5-29,96,86,77,37,32,19,22,14,9,29.73,29.63,29.54,10,10,10,23,14,29,0.00,0,,49
2013-5-30,100,86,71,45,36,27,23,16,11,29.77,29.70,29.62,10,10,10,22,9,28,0.00,0,,148
2013-5-31,102,88,75,50,39,23,39,20,7,29.87,29.78,29.72,10,10,9,15,5,22,0.00,0,Thunderstorm,316